Time;durP1;ratioP1;P1;durP2;ratioP2;P2;SDS_P1;SDS_P2;PMS_P1;PMS_P2;Temp;Humidity;BMP_temperature;BMP_pressure;BME280_temperature;BME280_humidity;BME280_pressure;Samples;Min_cycle;Max_cycle;Signal;HPM_P1;HPM_P2
2023/01/06 18:15:01;;;;;;;6.53;4.90;;;8.20;99.90;;;;;;7606563;19;20378;-71
2023/01/06 18:17:34;;;;;;;6.75;4.95;;;7.80;99.90;;;;;;7616996;19;20021;-75
2023/01/06 18:20:06;;;;;;;5.55;4.10;;;7.80;99.90;;;;;;7616370;19;21410;-74
2023/01/06 18:22:39;;;;;;;4.28;3.78;;;7.90;99.90;;;;;;7633049;19;20032;-74
2023/01/06 18:25:22;;;;;;;6.67;4.63;;;7.90;99.90;;;;;;7619753;19;20018;-74
2023/01/06 18:27:54;;;;;;;8.05;5.57;;;8.00;99.90;;;;;;7624336;19;20266;-73
2023/01/06 18:30:27;;;;;;;8.45;5.45;;;8.00;99.90;;;;;;7607166;19;20022;-74
2023/01/06 18:33:00;;;;;;;5.47;4.45;;;8.10;99.90;;;;;;7625979;19;20512;-74
2023/01/06 18:35:33;;;;;;;6.57;4.22;;;8.10;99.90;;;;;;7620777;19;20029;-75
2023/01/06 18:38:06;;;;;;;7.28;4.93;;;8.20;99.90;;;;;;7622076;19;20010;-74
2023/01/06 18:40:38;;;;;;;7.40;4.72;;;8.20;99.90;;;;;;7628582;19;20063;-74
2023/01/06 18:43:22;;;;;;;7.80;5.35;;;8.20;99.90;;;;;;7637839;19;20129;-73
2023/01/06 18:46:00;;;;;;;7.93;5.80;;;8.20;99.90;;;;;;7638486;19;20026;-73
2023/01/06 18:48:33;;;;;;;12.32;8.02;;;8.20;99.90;;;;;;7625917;19;20018;-73
2023/01/06 18:51:17;;;;;;;14.13;8.55;;;8.30;99.90;;;;;;7623832;19;20722;-72
2023/01/06 18:53:51;;;;;;;20.27;11.23;;;8.30;99.90;;;;;;7619835;19;20652;-73
2023/01/06 18:56:25;;;;;;;13.48;9.75;;;8.40;99.90;;;;;;7630417;19;21294;-72
2023/01/06 18:58:58;;;;;;;16.60;9.00;;;8.40;99.90;;;;;;7635616;19;20069;-74
2023/01/06 19:01:44;;;;;;;14.82;10.10;;;8.40;99.90;;;;;;7618159;19;20011;-72
2023/01/06 19:04:31;;;;;;;13.00;8.43;;;8.30;99.90;;;;;;7634418;19;20018;-73
2023/01/06 19:07:26;;;;;;;11.15;7.40;;;8.30;99.90;;;;;;7622270;19;20920;-73
2023/01/06 19:09:58;;;;;;;10.93;7.68;;;8.40;99.90;;;;;;7601529;19;20014;-73
2023/01/06 19:12:32;;;;;;;15.18;9.27;;;8.30;99.90;;;;;;7631794;19;20038;-74
2023/01/06 19:15:25;;;;;;;16.45;10.13;;;8.30;99.90;;;;;;7622727;19;20010;-72
2023/01/06 19:17:59;;;;;;;14.27;10.15;;;8.40;99.90;;;;;;7623935;19;20093;-74
2023/01/06 19:20:36;;;;;;;13.73;9.18;;;8.40;99.90;;;;;;7615553;19;20046;-73
2023/01/06 19:23:21;;;;;;;15.43;9.23;;;8.40;99.90;;;;;;7627165;19;20025;-73
2023/01/06 19:26:03;;;;;;;13.52;9.05;;;8.40;99.90;;;;;;7603555;19;20021;-72
2023/01/06 19:28:35;;;;;;;12.45;7.95;;;8.30;99.90;;;;;;7592367;19;20048;-73
2023/01/06 19:31:20;;;;;;;10.85;6.80;;;8.20;99.90;;;;;;7590277;19;20011;-73
2023/01/06 19:33:56;;;;;;;11.00;7.45;;;8.20;99.90;;;;;;7602775;19;20065;-72
2023/01/06 19:36:43;;;;;;;10.93;7.25;;;8.20;99.90;;;;;;7591507;19;20026;-75
2023/01/06 19:39:31;;;;;;;9.68;6.28;;;8.10;99.90;;;;;;7594814;19;20034;-74
2023/01/06 19:42:07;;;;;;;9.88;6.72;;;8.20;99.90;;;;;;7596250;19;20779;-73
2023/01/06 19:44:41;;;;;;;8.02;5.22;;;8.20;99.90;;;;;;7604385;19;20090;-73
2023/01/06 19:47:37;;;;;;;7.32;4.85;;;8.20;99.90;;;;;;7584020;19;20038;-73
2023/01/06 19:50:22;;;;;;;7.43;4.65;;;8.10;99.90;;;;;;7589514;19;20510;-75
2023/01/06 19:52:57;;;;;;;8.68;4.15;;;8.10;99.90;;;;;;7597991;19;20021;-74
2023/01/06 19:55:31;;;;;;;6.63;4.60;;;8.10;99.90;;;;;;7599340;19;22153;-74
2023/01/06 19:58:14;;;;;;;6.60;5.00;;;8.10;99.90;;;;;;7600170;19;20789;-73
2023/01/06 20:00:48;;;;;;;7.30;5.13;;;8.10;99.90;;;;;;7588186;19;20103;-73
2023/01/06 20:03:36;;;;;;;5.78;4.55;;;8.10;99.90;;;;;;7582163;19;20045;-72
2023/01/06 20:06:08;;;;;;;7.18;5.03;;;8.20;99.90;;;;;;7590990;19;20036;-74
2023/01/06 20:08:41;;;;;;;5.43;3.97;;;8.30;99.90;;;;;;7597797;19;21045;-74
2023/01/06 20:11:13;;;;;;;7.37;4.47;;;8.30;99.90;;;;;;7601227;19;20029;-74
2023/01/06 20:13:46;;;;;;;7.05;4.97;;;8.20;99.90;;;;;;7592335;19;20018;-72
2023/01/06 20:16:18;;;;;;;6.80;4.53;;;8.20;99.90;;;;;;7589084;19;20025;-73
2023/01/06 20:18:50;;;;;;;6.97;4.93;;;8.20;99.90;;;;;;7594883;19;20022;-74
2023/01/06 20:21:23;;;;;;;6.65;4.85;;;8.20;99.90;;;;;;7592794;19;20503;-73
2023/01/06 20:23:57;;;;;;;7.05;4.93;;;8.20;99.90;;;;;;7596218;19;20015;-73
2023/01/06 20:26:29;;;;;;;6.93;4.88;;;8.20;99.90;;;;;;7600019;19;20426;-74
2023/01/06 20:29:03;;;;;;;7.88;4.75;;;8.10;99.90;;;;;;7591771;19;20360;-74
2023/01/06 20:31:35;;;;;;;;;;;8.20;99.90;;;;;;7586316;19;20131;-72
2023/01/06 20:34:07;;;;;;;6.88;4.88;;;8.10;99.90;;;;;;7596975;19;19922;-73
2023/01/06 20:36:39;;;;;;;7.60;4.63;;;8.10;99.90;;;;;;7576477;19;20017;-73
2023/01/06 20:39:13;;;;;;;5.78;4.10;;;8.10;99.90;;;;;;7578539;19;20988;-71
2023/01/06 20:41:46;;;;;;;6.88;4.45;;;8.20;99.90;;;;;;7583225;19;20014;-73
2023/01/06 20:44:18;;;;;;;9.20;5.63;;;8.10;99.90;;;;;;7585025;19;20536;-72
2023/01/06 20:46:50;;;;;;;5.90;4.18;;;8.20;99.90;;;;;;7550097;19;20042;-73
2023/01/06 20:49:23;;;;;;;7.15;4.07;;;8.20;99.90;;;;;;7569696;19;20015;-73
2023/01/06 20:51:55;;;;;;;5.87;4.13;;;8.20;99.90;;;;;;7563239;19;20026;-72
2023/01/06 20:54:27;;;;;;;6.10;4.18;;;8.20;99.90;;;;;;7555050;19;20029;-72
2023/01/06 20:57:00;;;;;;;7.45;4.40;;;8.10;99.90;;;;;;7561074;19;20462;-72
2023/01/06 20:59:32;;;;;;;9.70;6.18;;;8.10;99.90;;;;;;7565490;19;20029;-74
2023/01/06 21:02:05;;;;;;;8.80;5.50;;;8.10;99.90;;;;;;7587172;19;20052;-72
2023/01/06 21:04:38;;;;;;;8.07;4.82;;;8.10;99.90;;;;;;7537222;19;20018;-73
2023/01/06 21:07:10;;;;;;;7.30;5.03;;;8.10;99.90;;;;;;7546763;19;20703;-73
2023/01/06 21:09:42;;;;;;;6.78;4.72;;;8.00;99.90;;;;;;7583474;19;20109;-73
2023/01/06 21:12:15;;;;;;;7.82;5.20;;;8.00;99.90;;;;;;7573979;19;20022;-72
2023/01/06 21:14:47;;;;;;;7.97;4.82;;;8.00;99.90;;;;;;7574918;19;20025;-72
2023/01/06 21:17:19;;;;;;;7.95;4.85;;;8.00;99.90;;;;;;7579489;19;20068;-73
2023/01/06 21:19:51;;;;;;;8.25;5.18;;;8.00;99.90;;;;;;7580207;19;21232;-73
2023/01/06 21:22:23;;;;;;;7.53;4.97;;;7.90;99.90;;;;;;7565351;19;20024;-74
2023/01/06 21:24:55;;;;;;;8.02;5.20;;;7.90;99.90;;;;;;7586271;19;20029;-73
2023/01/06 21:27:27;;;;;;;7.07;5.20;;;8.00;99.90;;;;;;7555221;19;20026;-71
2023/01/06 21:29:59;;;;;;;7.28;4.32;;;8.00;99.90;;;;;;7570762;19;20096;-73
2023/01/06 21:32:31;;;;;;;7.28;4.15;;;8.10;99.90;;;;;;7559442;19;20014;-73
